STT weather

Cyril E. King Airport
Charlotte Amalie, Harry S. Truman Airport, U.S. Virgin Islands

Public forecast

Using degrees Celsius for public forecast. Weather courtesy of forecast.io.

Current aviation weather report (METAR) for Cyril E. King Airport

Retrieved 2020/04/07 05:53 UTC (23 minutes ago):

TIST 070553Z AUTO 09005KT 10SM CLR 26/22 A3000

Aviation forecast (TAF) for Cyril E. King Airport

Retrieved 2020/04/07 06:48 UTC (0 seconds ago):

TAF TAF TIST 070541Z 0706/0806 07005KT P6SM FEW025 FM071400 09012KT P6SM FEW025 SCT050 FM071800 06009KT P6SM FEW025 SCT050 FM072200 08008KT P6SM VCSH SCT025 SCT050